Greenview, CA (96037)

4:10 AM PDT on March 24, 2017 (GMT -0700)
Scott Valley Airport (A30) | | Change Station
Active Advisory: Winter Weather Advisory

Elev 2730 ft 41.55 °N, 122.85 °W | Updated 1 minute ago

Rain
Rain
42.1 °F
Feels Like 36 °F
N
11.0
Wind Variable Wind from SE
Gusts 21.0 mph

Today
High -- | Low -- °F
--% Chance of Precip.
Yesterday
High -- | Low -- °F
Precip. -- in
Pressure 30.01 in
Visibility 10.0 miles
Clouds Few 4800 ft
Overcast 5500 ft
Windchill 36 °F
Dew Point 36 °F
Humidity 79%
Rainfall 0.02 in
Snow Depth Not available.
7:07 AM 7:28 PM
Waning Crescent, 16% visible
METAR KSIY 241053Z AUTO 18022G31KT 10SM FEW048 OVC055 06/00 A2998 RMK AO2 PK WND 17032/1004 SLP160 T00610000
Pressure 30.01 in
Visibility 10.0 miles
Clouds Few 4800 ft
Overcast 5500 ft
Windchill 36 °F
Dew Point 36 °F
Humidity 79%
Rainfall 0.02 in
Snow Depth Not available.
7:07 AM 7:28 PM
Waning Crescent, 16% visible
METAR KSIY 241053Z AUTO 18022G31KT 10SM FEW048 OVC055 06/00 A2998 RMK AO2 PK WND 17032/1004 SLP160 T00610000

Get Your Daily Forecast Email!

Thanks for signing up!

Be on the lookout for a verification email in your inbox.

You'll start receiving severe weather alerts in your inbox..

×

10-Day Weather Forecast

Almanac

Astronomy

Mar. 24, 2017 Rise Set
Actual Time
Civil Twilight
Nautical Twilight
Astronomical Twilight
Moon
Length of Visible Light
Length of Day
Tomorrow will be .
, % of the Moon is Illuminated

Today's Extremes

State Highs State Lows

Community

WunderPhotos

Upload Photos

1,962,540 photos uploaded!

WunderBlog® & News

Nearby

Air Quality

  Air Quality AQ Index Pollutant
Not available.

Snow Depth

Station Depth Elevation

Earthquake Activity

City Distance Mag. Time & Date
Minimum magnitude displayed is 2.5.

Earthquake Activity

City Distance Mag. Time & Date
Minimum magnitude displayed is 2.5.

Coastal Water Temperatures

Place Temperature

Stations

Nearby Weather Stations

Station Location Temp. Windchill Dew Point Humidity Wind Precip. Elev Updated Type
                   

Watches & Warnings

Winter Weather Advisory
Issued: 2:57 AM PDT Mar. 24, 2017 – National Weather Service

... Winter Weather Advisory remains in effect until 2 PM PDT this
afternoon...

* snow accumulations... additional 8 to 12 inches.

* Elevation... above 5000 feet.

* Timing... heaviest accumulations will occur until 11 am before
tapering off to snow showers.

* Locations include... Sawyers Bar Road in western Siskiyou
County.

* Impacts... heavy wet snow will make travel difficult for
vehicles. Be prepared for snow covered roads.

* View the hazard area in detail at
http://weather.Gov/Medford/hazard

Precautionary/preparedness actions...

* slow down and allow extra time to reach your destination.

* Be prepared for snow covered roads and limited visibilities.

* See weather.Gov/Medford/cams for latest Road conditions.

* A Winter Weather Advisory for snow means that periods of snow
will cause travel difficulties.